sensor_id;sensor_type;location;lat;lon;timestamp;pressure;altitude;pressure_sealevel;temperature;humidity
51468;BME280;37545;45.302;-122.946;2023-06-14T00:00:08;101033.50;;;26.65;37.44
51468;BME280;37545;45.302;-122.946;2023-06-14T00:02:36;101033.72;;;26.59;37.71
51468;BME280;37545;45.302;-122.946;2023-06-14T00:05:05;101040.97;;;26.52;36.96
51468;BME280;37545;45.302;-122.946;2023-06-14T00:07:35;101038.56;;;26.45;37.25
51468;BME280;37545;45.302;-122.946;2023-06-14T00:10:07;101040.53;;;26.38;37.44
51468;BME280;37545;45.302;-122.946;2023-06-14T00:12:35;101036.47;;;26.28;37.70
51468;BME280;37545;45.302;-122.946;2023-06-14T00:15:06;101040.22;;;26.21;38.11
51468;BME280;37545;45.302;-122.946;2023-06-14T00:17:35;101043.88;;;26.17;37.25
51468;BME280;37545;45.302;-122.946;2023-06-14T00:20:06;101035.09;;;26.15;37.35
51468;BME280;37545;45.302;-122.946;2023-06-14T00:22:35;101045.81;;;26.11;37.50
51468;BME280;37545;45.302;-122.946;2023-06-14T00:25:07;101038.94;;;26.04;39.00
51468;BME280;37545;45.302;-122.946;2023-06-14T00:27:36;101033.84;;;25.98;38.85
51468;BME280;37545;45.302;-122.946;2023-06-14T00:30:05;101035.84;;;25.90;38.33
51468;BME280;37545;45.302;-122.946;2023-06-14T00:32:34;101035.06;;;25.85;39.32
51468;BME280;37545;45.302;-122.946;2023-06-14T00:35:03;101033.78;;;25.68;37.42
51468;BME280;37545;45.302;-122.946;2023-06-14T00:37:32;101031.47;;;25.56;37.72
51468;BME280;37545;45.302;-122.946;2023-06-14T00:40:00;101036.97;;;25.50;37.60
51468;BME280;37545;45.302;-122.946;2023-06-14T00:42:32;101038.88;;;25.45;38.33
51468;BME280;37545;45.302;-122.946;2023-06-14T00:45:01;101034.50;;;25.42;38.65
51468;BME280;37545;45.302;-122.946;2023-06-14T00:47:29;101033.50;;;25.48;38.41
51468;BME280;37545;45.302;-122.946;2023-06-14T00:49:58;101035.63;;;25.66;37.75
51468;BME280;37545;45.302;-122.946;2023-06-14T00:52:28;101031.31;;;25.62;36.61
51468;BME280;37545;45.302;-122.946;2023-06-14T00:54:59;101016.38;;;25.60;36.07
51468;BME280;37545;45.302;-122.946;2023-06-14T00:57:27;101023.75;;;25.80;37.32
51468;BME280;37545;45.302;-122.946;2023-06-14T00:59:58;101029.06;;;25.80;36.06
51468;BME280;37545;45.302;-122.946;2023-06-14T01:02:26;101015.78;;;25.80;35.53
51468;BME280;37545;45.302;-122.946;2023-06-14T01:04:55;101012.03;;;25.88;35.71
51468;BME280;37545;45.302;-122.946;2023-06-14T01:07:29;101013.66;;;25.92;35.87
51468;BME280;37545;45.302;-122.946;2023-06-14T01:10:12;101006.34;;;26.01;36.39
51468;BME280;37545;45.302;-122.946;2023-06-14T01:12:52;101005.38;;;26.03;35.58
51468;BME280;37545;45.302;-122.946;2023-06-14T01:15:27;101009.69;;;26.07;36.23
51468;BME280;37545;45.302;-122.946;2023-06-14T01:17:57;100998.06;;;26.11;35.40
51468;BME280;37545;45.302;-122.946;2023-06-14T01:20:28;101002.31;;;26.17;35.36
51468;BME280;37545;45.302;-122.946;2023-06-14T01:22:59;100988.22;;;26.15;34.90
51468;BME280;37545;45.302;-122.946;2023-06-14T01:25:28;100995.84;;;26.26;35.21
51468;BME280;37545;45.302;-122.946;2023-06-14T01:28:03;101004.56;;;26.29;34.82
51468;BME280;37545;45.302;-122.946;2023-06-14T01:30:37;101010.75;;;26.30;34.33
51468;BME280;37545;45.302;-122.946;2023-06-14T01:33:09;101009.94;;;26.28;33.91
51468;BME280;37545;45.302;-122.946;2023-06-14T01:35:38;101010.00;;;26.25;33.57
51468;BME280;37545;45.302;-122.946;2023-06-14T01:38:09;101006.56;;;26.23;33.93
51468;BME280;37545;45.302;-122.946;2023-06-14T01:40:39;100997.16;;;26.12;33.49
51468;BME280;37545;45.302;-122.946;2023-06-14T01:43:07;101004.00;;;26.20;34.55
51468;BME280;37545;45.302;-122.946;2023-06-14T01:45:38;101014.75;;;26.15;34.20
51468;BME280;37545;45.302;-122.946;2023-06-14T01:48:08;101015.72;;;26.12;32.99
51468;BME280;37545;45.302;-122.946;2023-06-14T01:50:37;101012.22;;;26.10;34.26
51468;BME280;37545;45.302;-122.946;2023-06-14T01:53:09;101010.69;;;26.03;33.73
51468;BME280;37545;45.302;-122.946;2023-06-14T01:55:38;101009.31;;;25.90;33.03
51468;BME280;37545;45.302;-122.946;2023-06-14T01:58:09;101010.41;;;25.83;33.39
51468;BME280;37545;45.302;-122.946;2023-06-14T02:00:38;101001.66;;;25.79;33.84
51468;BME280;37545;45.302;-122.946;2023-06-14T02:03:06;101003.78;;;25.68;33.01
51468;BME280;37545;45.302;-122.946;2023-06-14T02:05:35;101001.47;;;25.56;32.93
51468;BME280;37545;45.302;-122.946;2023-06-14T02:08:05;101005.34;;;25.44;33.85
51468;BME280;37545;45.302;-122.946;2023-06-14T02:10:35;101012.88;;;25.26;33.59
51468;BME280;37545;45.302;-122.946;2023-06-14T02:13:04;101015.09;;;25.09;33.38
51468;BME280;37545;45.302;-122.946;2023-06-14T02:15:32;101016.69;;;24.82;34.31
51468;BME280;37545;45.302;-122.946;2023-06-14T02:18:01;101017.16;;;24.62;34.68
51468;BME280;37545;45.302;-122.946;2023-06-14T02:20:33;101022.81;;;24.46;36.28
51468;BME280;37545;45.302;-122.946;2023-06-14T02:23:02;101031.84;;;24.36;34.79
51468;BME280;37545;45.302;-122.946;2023-06-14T02:25:31;101040.09;;;24.24;35.36
51468;BME280;37545;45.302;-122.946;2023-06-14T02:28:01;101037.78;;;24.09;34.54
51468;BME280;37545;45.302;-122.946;2023-06-14T02:30:30;101041.66;;;23.92;36.32
51468;BME280;37545;45.302;-122.946;2023-06-14T02:32:59;101048.88;;;23.84;36.30
51468;BME280;37545;45.302;-122.946;2023-06-14T02:35:28;101047.22;;;23.78;36.26
51468;BME280;37545;45.302;-122.946;2023-06-14T02:37:56;101053.47;;;23.73;37.24
51468;BME280;37545;45.302;-122.946;2023-06-14T02:40:25;101048.44;;;23.60;36.29
51468;BME280;37545;45.302;-122.946;2023-06-14T02:42:53;101053.97;;;23.48;36.64
51468;BME280;37545;45.302;-122.946;2023-06-14T02:45:24;101047.94;;;23.40;36.04
51468;BME280;37545;45.302;-122.946;2023-06-14T02:47:53;101050.69;;;23.34;37.37
51468;BME280;37545;45.302;-122.946;2023-06-14T02:50:22;101058.75;;;23.28;36.74
51468;BME280;37545;45.302;-122.946;2023-06-14T02:52:50;101061.50;;;23.21;37.30
51468;BME280;37545;45.302;-122.946;2023-06-14T02:55:19;101052.09;;;23.07;36.88
51468;BME280;37545;45.302;-122.946;2023-06-14T02:57:47;101062.81;;;22.94;37.23
51468;BME280;37545;45.302;-122.946;2023-06-14T03:00:16;101062.97;;;22.84;38.27
51468;BME280;37545;45.302;-122.946;2023-06-14T03:02:47;101072.81;;;22.75;38.40
51468;BME280;37545;45.302;-122.946;2023-06-14T03:05:17;101080.88;;;22.65;37.49
51468;BME280;37545;45.302;-122.946;2023-06-14T03:07:48;101082.91;;;22.47;38.23
51468;BME280;37545;45.302;-122.946;2023-06-14T03:10:16;101082.16;;;22.37;37.97
51468;BME280;37545;45.302;-122.946;2023-06-14T03:12:45;101076.22;;;22.22;37.55
51468;BME280;37545;45.302;-122.946;2023-06-14T03:15:14;101070.28;;;22.04;39.12
51468;BME280;37545;45.302;-122.946;2023-06-14T03:17:43;101060.81;;;21.88;39.28
51468;BME280;37545;45.302;-122.946;2023-06-14T03:20:17;101067.09;;;21.76;39.23
51468;BME280;37545;45.302;-122.946;2023-06-14T03:22:46;101076.00;;;21.66;39.10
51468;BME280;37545;45.302;-122.946;2023-06-14T03:25:15;101074.34;;;21.57;40.09
51468;BME280;37545;45.302;-122.946;2023-06-14T03:27:47;101081.47;;;21.47;40.45
51468;BME280;37545;45.302;-122.946;2023-06-14T03:30:16;101080.66;;;21.34;40.06
51468;BME280;37545;45.302;-122.946;2023-06-14T03:32:45;101089.53;;;21.27;39.72
51468;BME280;37545;45.302;-122.946;2023-06-14T03:35:13;101093.13;;;21.16;40.19
51468;BME280;37545;45.302;-122.946;2023-06-14T03:37:45;101094.13;;;21.05;39.79
51468;BME280;37545;45.302;-122.946;2023-06-14T03:40:17;101094.22;;;20.90;40.56
51468;BME280;37545;45.302;-122.946;2023-06-14T03:42:46;101101.31;;;20.79;40.43
51468;BME280;37545;45.302;-122.946;2023-06-14T03:45:14;101095.25;;;20.66;40.63
51468;BME280;37545;45.302;-122.946;2023-06-14T03:47:44;101097.94;;;20.54;40.82
51468;BME280;37545;45.302;-122.946;2023-06-14T03:50:19;101099.75;;;20.41;41.56
51468;BME280;37545;45.302;-122.946;2023-06-14T03:52:56;101112.09;;;20.31;41.59
51468;BME280;37545;45.302;-122.946;2023-06-14T03:55:25;101123.53;;;20.18;41.91
51468;BME280;37545;45.302;-122.946;2023-06-14T03:57:54;101127.97;;;20.05;41.86
51468;BME280;37545;45.302;-122.946;2023-06-14T04:00:25;101125.38;;;19.93;42.09
51468;BME280;37545;45.302;-122.946;2023-06-14T04:02:53;101131.53;;;19.85;41.74
51468;BME280;37545;45.302;-122.946;2023-06-14T04:05:22;101127.19;;;19.74;42.13
51468;BME280;37545;45.302;-122.946;2023-06-14T04:07:52;101129.78;;;19.63;42.79
51468;BME280;37545;45.302;-122.946;2023-06-14T04:10:25;101134.19;;;19.53;42.76
51468;BME280;37545;45.302;-122.946;2023-06-14T04:12:54;101136.84;;;19.42;42.84
51468;BME280;37545;45.302;-122.946;2023-06-14T04:15:22;101145.59;;;19.32;44.18
51468;BME280;37545;45.302;-122.946;2023-06-14T04:17:51;101149.09;;;19.22;44.12
51468;BME280;37545;45.302;-122.946;2023-06-14T04:20:22;101163.06;;;19.12;45.09
51468;BME280;37545;45.302;-122.946;2023-06-14T04:22:52;101175.28;;;19.00;43.84
51468;BME280;37545;45.302;-122.946;2023-06-14T04:25:25;101179.63;;;18.89;44.11
51468;BME280;37545;45.302;-122.946;2023-06-14T04:27:57;101178.75;;;18.79;44.10
51468;BME280;37545;45.302;-122.946;2023-06-14T04:30:25;101179.56;;;18.71;44.12
51468;BME280;37545;45.302;-122.946;2023-06-14T04:32:57;101187.41;;;18.63;44.48
51468;BME280;37545;45.302;-122.946;2023-06-14T04:35:26;101192.59;;;18.52;45.09
51468;BME280;37545;45.302;-122.946;2023-06-14T04:37:55;101197.81;;;18.40;45.25
51468;BME280;37545;45.302;-122.946;2023-06-14T04:40:27;101211.72;;;18.30;45.50
51468;BME280;37545;45.302;-122.946;2023-06-14T04:42:56;101216.91;;;18.20;45.94
51468;BME280;37545;45.302;-122.946;2023-06-14T04:45:25;101221.22;;;18.11;46.14
51468;BME280;37545;45.302;-122.946;2023-06-14T04:47:59;101230.81;;;18.09;45.83
51468;BME280;37545;45.302;-122.946;2023-06-14T04:50:27;101230.75;;;17.99;46.11
51468;BME280;37545;45.302;-122.946;2023-06-14T04:52:59;101239.41;;;17.91;46.33
51468;BME280;37545;45.302;-122.946;2023-06-14T04:55:29;101246.34;;;17.83;47.39
51468;BME280;37545;45.302;-122.946;2023-06-14T04:57:59;101253.22;;;17.74;46.99
51468;BME280;37545;45.302;-122.946;2023-06-14T05:00:27;101254.06;;;17.70;46.79
51468;BME280;37545;45.302;-122.946;2023-06-14T05:02:56;101258.38;;;17.65;46.71
51468;BME280;37545;45.302;-122.946;2023-06-14T05:05:25;101256.59;;;17.59;46.88
51468;BME280;37545;45.302;-122.946;2023-06-14T05:07:54;101264.41;;;17.53;47.12
51468;BME280;37545;45.302;-122.946;2023-06-14T05:10:22;101263.44;;;17.45;48.00
51468;BME280;37545;45.302;-122.946;2023-06-14T05:12:55;101268.59;;;17.34;48.72
51468;BME280;37545;45.302;-122.946;2023-06-14T05:15:23;101269.38;;;17.26;51.84
51468;BME280;37545;45.302;-122.946;2023-06-14T05:17:53;101268.41;;;17.16;50.36
51468;BME280;37545;45.302;-122.946;2023-06-14T05:20:23;101282.22;;;17.04;48.16
51468;BME280;37545;45.302;-122.946;2023-06-14T05:22:53;101284.72;;;16.95;48.58
51468;BME280;37545;45.302;-122.946;2023-06-14T05:25:23;101293.38;;;16.91;49.18
51468;BME280;37545;45.302;-122.946;2023-06-14T05:27:53;101295.06;;;16.87;49.81
51468;BME280;37545;45.302;-122.946;2023-06-14T05:30:22;101296.75;;;16.82;50.65
51468;BME280;37545;45.302;-122.946;2023-06-14T05:32:50;101295.78;;;16.77;49.67
51468;BME280;37545;45.302;-122.946;2023-06-14T05:35:19;101302.69;;;16.70;49.29
51468;BME280;37545;45.302;-122.946;2023-06-14T05:37:48;101297.31;;;16.60;49.54
51468;BME280;37545;45.302;-122.946;2023-06-14T05:40:17;101302.53;;;16.60;49.86
51468;BME280;37545;45.302;-122.946;2023-06-14T05:42:46;101311.16;;;16.55;50.05
51468;BME280;37545;45.302;-122.946;2023-06-14T05:45:16;101315.44;;;16.49;49.66
51468;BME280;37545;45.302;-122.946;2023-06-14T05:47:45;101321.44;;;16.40;50.08
51468;BME280;37545;45.302;-122.946;2023-06-14T05:50:13;101323.00;;;16.29;50.22
51468;BME280;37545;45.302;-122.946;2023-06-14T05:52:42;101321.16;;;16.22;50.74
51468;BME280;37545;45.302;-122.946;2023-06-14T05:55:11;101324.50;;;16.15;50.70
51468;BME280;37545;45.302;-122.946;2023-06-14T05:57:39;101319.19;;;16.08;51.08
51468;BME280;37545;45.302;-122.946;2023-06-14T06:00:09;101325.97;;;15.99;50.79
51468;BME280;37545;45.302;-122.946;2023-06-14T06:02:42;101331.09;;;15.91;50.55
51468;BME280;37545;45.302;-122.946;2023-06-14T06:05:11;101341.47;;;15.88;50.72
51468;BME280;37545;45.302;-122.946;2023-06-14T06:07:40;101332.69;;;15.83;51.00
51468;BME280;37545;45.302;-122.946;2023-06-14T06:10:10;101327.38;;;15.77;50.94
51468;BME280;37545;45.302;-122.946;2023-06-14T06:12:40;101332.31;;;15.64;51.20
51468;BME280;37545;45.302;-122.946;2023-06-14T06:15:09;101340.97;;;15.60;51.46
51468;BME280;37545;45.302;-122.946;2023-06-14T06:17:41;101340.88;;;15.57;52.12
51468;BME280;37545;45.302;-122.946;2023-06-14T06:20:10;101345.19;;;15.55;51.77
51468;BME280;37545;45.302;-122.946;2023-06-14T06:22:39;101349.41;;;15.47;52.15
51468;BME280;37545;45.302;-122.946;2023-06-14T06:25:08;101341.41;;;15.38;53.43
51468;BME280;37545;45.302;-122.946;2023-06-14T06:27:37;101349.91;;;15.29;52.59
51468;BME280;37545;45.302;-122.946;2023-06-14T06:30:07;101342.91;;;15.26;52.51
51468;BME280;37545;45.302;-122.946;2023-06-14T06:32:36;101349.78;;;15.23;52.33
51468;BME280;37545;45.302;-122.946;2023-06-14T06:35:07;101353.22;;;15.20;53.04
51468;BME280;37545;45.302;-122.946;2023-06-14T06:37:36;101358.34;;;15.16;54.02
51468;BME280;37545;45.302;-122.946;2023-06-14T06:40:06;101358.25;;;15.11;54.11
51468;BME280;37545;45.302;-122.946;2023-06-14T06:42:35;101360.75;;;15.05;54.25
51468;BME280;37545;45.302;-122.946;2023-06-14T06:45:04;101358.84;;;14.98;54.12
51468;BME280;37545;45.302;-122.946;2023-06-14T06:47:32;101357.03;;;14.94;53.74
51468;BME280;37545;45.302;-122.946;2023-06-14T06:50:01;101365.63;;;14.91;53.88
51468;BME280;37545;45.302;-122.946;2023-06-14T06:52:31;101356.84;;;14.86;53.95
51468;BME280;37545;45.302;-122.946;2023-06-14T06:55:00;101363.75;;;14.82;53.91
51468;BME280;37545;45.302;-122.946;2023-06-14T06:57:29;101370.56;;;14.77;54.53
51468;BME280;37545;45.302;-122.946;2023-06-14T06:59:58;101377.28;;;14.66;54.19
51468;BME280;37545;45.302;-122.946;2023-06-14T07:02:27;101375.34;;;14.57;54.38
51468;BME280;37545;45.302;-122.946;2023-06-14T07:04:57;101382.22;;;14.55;54.17
51468;BME280;37545;45.302;-122.946;2023-06-14T07:07:25;101385.63;;;14.53;54.54
51468;BME280;37545;45.302;-122.946;2023-06-14T07:09:55;101380.31;;;14.50;54.57
51468;BME280;37545;45.302;-122.946;2023-06-14T07:12:26;101382.81;;;14.45;55.25
51468;BME280;37545;45.302;-122.946;2023-06-14T07:14:54;101392.28;;;14.41;55.02
51468;BME280;37545;45.302;-122.946;2023-06-14T07:17:23;101385.19;;;14.34;55.84
51468;BME280;37545;45.302;-122.946;2023-06-14T07:19:51;101385.09;;;14.31;57.04
51468;BME280;37545;45.302;-122.946;2023-06-14T07:22:20;101388.47;;;14.27;57.06
51468;BME280;37545;45.302;-122.946;2023-06-14T07:24:48;101388.47;;;14.27;57.45
51468;BME280;37545;45.302;-122.946;2023-06-14T07:27:19;101386.69;;;14.26;57.51
51468;BME280;37545;45.302;-122.946;2023-06-14T07:29:48;101387.41;;;14.19;56.58
51468;BME280;37545;45.302;-122.946;2023-06-14T07:32:19;101389.78;;;14.10;56.57
51468;BME280;37545;45.302;-122.946;2023-06-14T07:34:48;101391.44;;;14.08;57.03
51468;BME280;37545;45.302;-122.946;2023-06-14T07:37:16;101391.38;;;14.04;57.17
51468;BME280;37545;45.302;-122.946;2023-06-14T07:39:45;101391.16;;;13.95;57.01
51468;BME280;37545;45.302;-122.946;2023-06-14T07:42:14;101393.69;;;13.94;57.98
51468;BME280;37545;45.302;-122.946;2023-06-14T07:44:44;101392.78;;;13.92;57.61
51468;BME280;37545;45.302;-122.946;2023-06-14T07:47:13;101396.94;;;13.85;58.55
51468;BME280;37545;45.302;-122.946;2023-06-14T07:49:41;101404.66;;;13.82;58.12
51468;BME280;37545;45.302;-122.946;2023-06-14T07:52:10;101399.41;;;13.79;57.62
51468;BME280;37545;45.302;-122.946;2023-06-14T07:54:40;101405.34;;;13.75;56.94
51468;BME280;37545;45.302;-122.946;2023-06-14T07:57:09;101415.69;;;13.73;56.71
51468;BME280;37545;45.302;-122.946;2023-06-14T07:59:37;101408.69;;;13.71;57.12
51468;BME280;37545;45.302;-122.946;2023-06-14T08:02:08;101404.25;;;13.67;57.57
51468;BME280;37545;45.302;-122.946;2023-06-14T08:04:36;101400.66;;;13.61;58.02
51468;BME280;37545;45.302;-122.946;2023-06-14T08:07:05;101396.91;;;13.52;58.16
51468;BME280;37545;45.302;-122.946;2023-06-14T08:09:34;101401.13;;;13.48;58.28
51468;BME280;37545;45.302;-122.946;2023-06-14T08:12:05;101400.13;;;13.43;58.66
51468;BME280;37545;45.302;-122.946;2023-06-14T08:14:33;101401.75;;;13.38;59.00
51468;BME280;37545;45.302;-122.946;2023-06-14T08:17:02;101395.56;;;13.34;59.94
51468;BME280;37545;45.302;-122.946;2023-06-14T08:19:41;101403.22;;;13.30;61.18
51468;BME280;37545;45.302;-122.946;2023-06-14T08:22:10;101405.75;;;13.28;60.73
51468;BME280;37545;45.302;-122.946;2023-06-14T08:24:39;101386.47;;;13.21;60.77
51468;BME280;37545;45.302;-122.946;2023-06-14T08:27:08;101398.72;;;13.26;60.60
51468;BME280;37545;45.302;-122.946;2023-06-14T08:29:37;101396.94;;;13.23;60.30
51468;BME280;37545;45.302;-122.946;2023-06-14T08:32:07;101404.66;;;13.20;59.94
51468;BME280;37545;45.302;-122.946;2023-06-14T08:34:38;101407.13;;;13.15;60.14
51468;BME280;37545;45.302;-122.946;2023-06-14T08:37:07;101411.31;;;13.10;60.64
51468;BME280;37545;45.302;-122.946;2023-06-14T08:39:35;101415.56;;;13.08;60.42
51468;BME280;37545;45.302;-122.946;2023-06-14T08:42:07;101412.84;;;13.05;61.12
51468;BME280;37545;45.302;-122.946;2023-06-14T08:44:37;101416.31;;;13.04;60.46
51468;BME280;37545;45.302;-122.946;2023-06-14T08:47:07;101417.13;;;13.03;61.17
51468;BME280;37545;45.302;-122.946;2023-06-14T08:49:41;101422.28;;;13.02;60.57
51468;BME280;37545;45.302;-122.946;2023-06-14T08:52:12;101418.75;;;12.99;60.70
51468;BME280;37545;45.302;-122.946;2023-06-14T08:54:42;101429.94;;;12.97;61.23
51468;BME280;37545;45.302;-122.946;2023-06-14T08:57:11;101425.63;;;12.97;61.38
51468;BME280;37545;45.302;-122.946;2023-06-14T08:59:46;101426.47;;;12.96;62.41
51468;BME280;37545;45.302;-122.946;2023-06-14T09:02:19;101429.84;;;12.94;63.19
51468;BME280;37545;45.302;-122.946;2023-06-14T09:04:50;101420.00;;;12.84;62.57
51468;BME280;37545;45.302;-122.946;2023-06-14T09:07:21;101433.94;;;12.87;62.62
51468;BME280;37545;45.302;-122.946;2023-06-14T09:10:05;101444.19;;;12.83;63.25
51468;BME280;37545;45.302;-122.946;2023-06-14T09:12:35;101442.38;;;12.80;62.64
51468;BME280;37545;45.302;-122.946;2023-06-14T09:15:06;101441.31;;;12.73;62.97
51468;BME280;37545;45.302;-122.946;2023-06-14T09:17:35;101441.22;;;12.70;63.41
51468;BME280;37545;45.302;-122.946;2023-06-14T09:20:08;101444.56;;;12.66;63.37
51468;BME280;37545;45.302;-122.946;2023-06-14T09:22:37;101446.19;;;12.63;64.07
51468;BME280;37545;45.302;-122.946;2023-06-14T09:25:07;101459.09;;;12.61;63.79
51468;BME280;37545;45.302;-122.946;2023-06-14T09:27:35;101449.44;;;12.57;64.50
51468;BME280;37545;45.302;-122.946;2023-06-14T09:30:08;101451.97;;;12.54;64.54
51468;BME280;37545;45.302;-122.946;2023-06-14T09:32:38;101443.16;;;12.49;65.30
51468;BME280;37545;45.302;-122.946;2023-06-14T09:35:09;101446.53;;;12.46;65.17
51468;BME280;37545;45.302;-122.946;2023-06-14T09:37:38;101447.28;;;12.44;65.69
51468;BME280;37545;45.302;-122.946;2023-06-14T09:40:07;101448.13;;;12.43;67.11
51468;BME280;37545;45.302;-122.946;2023-06-14T09:42:37;101452.28;;;12.38;67.51
51468;BME280;37545;45.302;-122.946;2023-06-14T09:45:07;101461.69;;;12.34;68.67
51468;BME280;37545;45.302;-122.946;2023-06-14T09:47:40;101456.44;;;12.32;68.03
51468;BME280;37545;45.302;-122.946;2023-06-14T09:50:11;101471.19;;;12.33;68.46
51468;BME280;37545;45.302;-122.946;2023-06-14T09:52:39;101471.09;;;12.30;69.81
51468;BME280;37545;45.302;-122.946;2023-06-14T09:55:14;101467.44;;;12.25;68.95
51468;BME280;37545;45.302;-122.946;2023-06-14T09:57:46;101458.75;;;12.23;68.61
51468;BME280;37545;45.302;-122.946;2023-06-14T10:00:18;101465.69;;;12.24;69.25
51468;BME280;37545;45.302;-122.946;2023-06-14T10:02:55;101457.97;;;12.26;69.17
51468;BME280;37545;45.302;-122.946;2023-06-14T10:05:29;101468.38;;;12.27;68.16
51468;BME280;37545;45.302;-122.946;2023-06-14T10:08:03;101464.13;;;12.29;68.34
51468;BME280;37545;45.302;-122.946;2023-06-14T10:10:32;101471.97;;;12.31;68.53
51468;BME280;37545;45.302;-122.946;2023-06-14T10:13:01;101466.78;;;12.31;69.23
51468;BME280;37545;45.302;-122.946;2023-06-14T10:15:35;101471.09;;;12.30;69.86
51468;BME280;37545;45.302;-122.946;2023-06-14T10:18:13;101469.31;;;12.29;69.78
51468;BME280;37545;45.302;-122.946;2023-06-14T10:20:55;101477.22;;;12.32;69.76
51468;BME280;37545;45.302;-122.946;2023-06-14T10:23:28;101478.81;;;12.29;69.41
51468;BME280;37545;45.302;-122.946;2023-06-14T10:25:58;101484.88;;;12.29;69.53
51468;BME280;37545;45.302;-122.946;2023-06-14T10:28:27;101484.84;;;12.28;69.94
51468;BME280;37545;45.302;-122.946;2023-06-14T10:31:07;101479.50;;;12.23;69.60
51468;BME280;37545;45.302;-122.946;2023-06-14T10:33:39;101483.78;;;12.23;69.91
51468;BME280;37545;45.302;-122.946;2023-06-14T10:36:26;101471.75;;;12.25;70.20
51468;BME280;37545;45.302;-122.946;2023-06-14T10:39:01;101465.69;;;12.24;69.78
51468;BME280;37545;45.302;-122.946;2023-06-14T10:41:35;101461.84;;;12.13;69.95
51468;BME280;37545;45.302;-122.946;2023-06-14T10:47:28;101449.38;;;12.03;70.86
51468;BME280;37545;45.302;-122.946;2023-06-14T10:50:03;101458.97;;;12.05;70.84
51468;BME280;37545;45.302;-122.946;2023-06-14T10:52:38;101452.84;;;12.03;70.28
51468;BME280;37545;45.302;-122.946;2023-06-14T10:55:09;101452.78;;;12.02;70.66
51468;BME280;37545;45.302;-122.946;2023-06-14T10:57:46;101455.38;;;12.02;70.59
51468;BME280;37545;45.302;-122.946;2023-06-14T11:00:19;101452.72;;;12.00;70.80
51468;BME280;37545;45.302;-122.946;2023-06-14T11:03:23;101464.81;;;12.00;71.18
51468;BME280;37545;45.302;-122.946;2023-06-14T11:05:58;101460.47;;;11.99;70.74
51468;BME280;37545;45.302;-122.946;2023-06-14T11:08:45;101463.88;;;11.98;70.87
51468;BME280;37545;45.302;-122.946;2023-06-14T11:11:22;101463.88;;;11.98;72.04
51468;BME280;37545;45.302;-122.946;2023-06-14T11:13:51;101463.88;;;11.98;71.33
51468;BME280;37545;45.302;-122.946;2023-06-14T11:16:20;101458.69;;;11.98;71.57
51468;BME280;37545;45.302;-122.946;2023-06-14T11:18:54;101457.50;;;11.88;72.76
51468;BME280;37545;45.302;-122.946;2023-06-14T11:21:23;101468.38;;;11.79;74.21
51468;BME280;37545;45.302;-122.946;2023-06-14T11:23:59;101462.06;;;11.71;75.14
51468;BME280;37545;45.302;-122.946;2023-06-14T11:26:28;101454.91;;;11.64;75.97
51468;BME280;37545;45.302;-122.946;2023-06-14T11:29:01;101451.47;;;11.65;76.24
51468;BME280;37545;45.302;-122.946;2023-06-14T11:31:48;101451.22;;;11.59;76.33
51468;BME280;37545;45.302;-122.946;2023-06-14T11:34:17;101458.03;;;11.55;76.40
51468;BME280;37545;45.302;-122.946;2023-06-14T11:36:46;101455.31;;;11.52;75.68
51468;BME280;37545;45.302;-122.946;2023-06-14T11:39:16;101463.22;;;11.55;75.81
51468;BME280;37545;45.302;-122.946;2023-06-14T11:41:45;101470.31;;;11.61;75.64
51468;BME280;37545;45.302;-122.946;2023-06-14T11:44:14;101470.31;;;11.61;76.48
51468;BME280;37545;45.302;-122.946;2023-06-14T11:46:42;101469.50;;;11.62;75.59
51468;BME280;37545;45.302;-122.946;2023-06-14T11:49:11;101473.06;;;11.65;75.66
51468;BME280;37545;45.302;-122.946;2023-06-14T11:51:43;101473.06;;;11.65;75.60
51468;BME280;37545;45.302;-122.946;2023-06-14T11:54:12;101473.13;;;11.67;75.26
51468;BME280;37545;45.302;-122.946;2023-06-14T11:56:42;101469.78;;;11.69;74.85
51468;BME280;37545;45.302;-122.946;2023-06-14T11:59:14;101475.06;;;11.72;75.21
51468;BME280;37545;45.302;-122.946;2023-06-14T12:01:43;101481.16;;;11.73;74.83
51468;BME280;37545;45.302;-122.946;2023-06-14T12:04:12;101481.25;;;11.76;74.76
51468;BME280;37545;45.302;-122.946;2023-06-14T12:06:41;101476.94;;;11.77;74.38
51468;BME280;37545;45.302;-122.946;2023-06-14T12:09:10;101473.53;;;11.78;74.31
51468;BME280;37545;45.302;-122.946;2023-06-14T12:11:45;101479.59;;;11.78;74.82
51468;BME280;37545;45.302;-122.946;2023-06-14T12:14:14;101482.19;;;11.78;74.86
51468;BME280;37545;45.302;-122.946;2023-06-14T12:16:43;101483.00;;;11.77;74.57
51468;BME280;37545;45.302;-122.946;2023-06-14T12:19:16;101493.28;;;11.74;74.19
51468;BME280;37545;45.302;-122.946;2023-06-14T12:21:47;101490.50;;;11.69;73.98
51468;BME280;37545;45.302;-122.946;2023-06-14T12:24:17;101492.22;;;11.69;74.31
51468;BME280;37545;45.302;-122.946;2023-06-14T12:26:47;101499.94;;;11.67;74.56
51468;BME280;37545;45.302;-122.946;2023-06-14T12:29:16;101504.19;;;11.65;74.86
51468;BME280;37545;45.302;-122.946;2023-06-14T12:31:47;101511.91;;;11.64;74.54
51468;BME280;37545;45.302;-122.946;2023-06-14T12:34:23;101510.03;;;11.60;74.58
51468;BME280;37545;45.302;-122.946;2023-06-14T12:36:53;101509.97;;;11.58;74.93
51468;BME280;37545;45.302;-122.946;2023-06-14T12:39:22;101509.97;;;11.58;75.28